createdAt,value
2022-12-13T00:01:44.246Z,5.80
2022-12-13T00:04:12.141Z,7.83
2022-12-13T00:06:39.139Z,6.50
2022-12-13T00:09:06.870Z,6.10
2022-12-13T00:11:34.690Z,6.67
2022-12-13T00:14:02.051Z,6.07
2022-12-13T00:16:29.290Z,6.43
2022-12-13T00:19:00.033Z,7.03
2022-12-13T00:21:31.227Z,7.30
2022-12-13T00:24:00.863Z,6.03
2022-12-13T00:26:31.210Z,5.87
2022-12-13T00:29:06.477Z,6.83
2022-12-13T00:34:21.439Z,5.67
2022-12-13T00:36:48.998Z,7.13
2022-12-13T00:39:19.345Z,7.87
2022-12-13T00:41:46.878Z,8.77
2022-12-13T00:44:14.768Z,10.30
2022-12-13T00:46:43.216Z,9.10
2022-12-13T00:49:12.589Z,8.97
2022-12-13T00:51:40.737Z,11.30
2022-12-13T00:54:07.813Z,7.67
2022-12-13T00:56:35.101Z,6.73
2022-12-13T00:59:02.098Z,6.40
2022-12-13T01:01:33.454Z,6.17
2022-12-13T01:04:02.919Z,6.27
2022-12-13T01:06:34.286Z,7.63
2022-12-13T01:09:02.942Z,7.10
2022-12-13T01:11:29.872Z,7.83
2022-12-13T01:13:56.812Z,7.23
2022-12-13T01:16:23.797Z,7.10
2022-12-13T01:18:51.077Z,6.90
2022-12-13T01:21:23.133Z,7.90
2022-12-13T01:23:50.602Z,6.33
2022-12-13T01:26:21.799Z,7.67
2022-12-13T01:28:49.636Z,7.53
2022-12-13T01:31:20.405Z,6.50
2022-12-13T01:33:48.589Z,6.40
2022-12-13T01:36:19.475Z,7.03
2022-12-13T01:38:58.296Z,5.63
2022-12-13T01:41:29.151Z,5.33
2022-12-13T01:44:41.988Z,7.13
2022-12-13T01:47:09.703Z,6.20
2022-12-13T01:49:37.104Z,6.20
2022-12-13T01:52:08.899Z,6.20
2022-12-13T01:54:46.613Z,7.13
2022-12-13T01:57:18.586Z,5.50
2022-12-13T01:59:47.538Z,6.93
2022-12-13T02:02:15.739Z,5.17
2022-12-13T02:04:56.767Z,7.90
2022-12-13T02:07:34.030Z,5.80
2022-12-13T02:10:06.011Z,6.40
2022-12-13T02:12:37.299Z,5.77
2022-12-13T02:15:13.734Z,6.77
2022-12-13T02:17:50.024Z,5.40
2022-12-13T02:20:47.509Z,5.90
2022-12-13T02:23:54.502Z,7.30
2022-12-13T02:26:47.382Z,6.60
2022-12-13T02:29:45.709Z,5.70
2022-12-13T02:33:07.305Z,5.77
2022-12-13T02:36:18.189Z,4.70
2022-12-13T02:39:10.554Z,4.87
2022-12-13T02:41:50.343Z,4.87
2022-12-13T02:44:52.480Z,6.63
2022-12-13T02:47:24.581Z,5.10
2022-12-13T02:49:57.474Z,6.80
2022-12-13T02:52:28.664Z,5.80
2022-12-13T02:54:57.205Z,5.00
2022-12-13T02:57:45.881Z,5.67
2022-12-13T03:00:34.585Z,6.20
2022-12-13T03:03:31.892Z,5.27
2022-12-13T03:06:56.203Z,5.17
2022-12-13T03:09:57.013Z,5.23
2022-12-13T03:13:04.678Z,6.50
2022-12-13T03:15:45.490Z,6.53
2022-12-13T03:18:18.399Z,6.33
2022-12-13T03:21:00.929Z,6.80
2022-12-13T03:23:29.030Z,7.30
2022-12-13T03:26:03.754Z,5.93
2022-12-13T03:28:30.828Z,5.10
2022-12-13T03:30:57.872Z,6.80
2022-12-13T03:33:24.990Z,6.17
2022-12-13T03:35:52.369Z,5.73
2022-12-13T03:38:22.215Z,6.50
2022-12-13T03:40:59.151Z,7.97
2022-12-13T03:43:27.522Z,6.73
2022-12-13T03:45:55.197Z,6.00
2022-12-13T03:48:23.829Z,7.90
2022-12-13T03:50:53.609Z,7.43
2022-12-13T03:53:33.641Z,7.67
2022-12-13T03:56:06.465Z,5.77
2022-12-13T03:58:37.743Z,7.70
2022-12-13T04:01:07.699Z,5.37
2022-12-13T04:03:36.688Z,5.70
2022-12-13T04:06:05.534Z,7.50
2022-12-13T04:08:33.224Z,6.17
2022-12-13T04:11:00.265Z,7.43
2022-12-13T04:13:33.112Z,7.70
2022-12-13T04:16:02.312Z,7.43
2022-12-13T04:18:29.699Z,7.00
2022-12-13T04:20:57.658Z,6.90
2022-12-13T04:23:25.099Z,8.40
2022-12-13T04:25:52.215Z,8.80
2022-12-13T04:28:22.470Z,9.27
2022-12-13T04:30:53.769Z,9.00
2022-12-13T04:33:22.862Z,8.43
2022-12-13T04:35:50.892Z,7.03
2022-12-13T04:38:18.608Z,8.70
2022-12-13T04:40:45.771Z,6.53
2022-12-13T04:43:12.809Z,7.83
2022-12-13T04:45:39.892Z,8.47
2022-12-13T04:48:07.703Z,9.00
2022-12-13T04:50:35.178Z,8.80
2022-12-13T04:53:02.142Z,9.33
2022-12-13T04:55:29.210Z,9.80
2022-12-13T04:57:56.073Z,7.40
2022-12-13T05:00:23.455Z,8.90
2022-12-13T05:02:50.827Z,9.10
2022-12-13T05:05:18.833Z,8.00
2022-12-13T05:07:46.413Z,10.20
2022-12-13T05:10:37.482Z,10.00
2022-12-13T05:13:01.004Z,9.03
2022-12-13T05:15:30.599Z,9.70
2022-12-13T05:18:09.943Z,9.80
2022-12-13T05:20:40.071Z,9.67
2022-12-13T05:23:07.434Z,8.87
2022-12-13T05:25:37.443Z,9.00
2022-12-13T05:28:08.938Z,9.93
2022-12-13T05:30:54.543Z,9.70
2022-12-13T05:33:23.397Z,14.37
2022-12-13T05:35:52.896Z,14.00
2022-12-13T05:38:22.184Z,15.70
2022-12-13T05:40:49.173Z,19.00
2022-12-13T05:43:21.267Z,18.03
2022-12-13T05:45:48.774Z,17.90
2022-12-13T05:48:16.315Z,20.00
2022-12-13T05:51:09.772Z,17.23
2022-12-13T05:53:43.386Z,20.30
2022-12-13T05:56:11.761Z,19.13
2022-12-13T05:58:41.535Z,19.50
2022-12-13T06:01:11.600Z,18.60
2022-12-13T06:03:39.564Z,19.23
2022-12-13T06:06:10.132Z,17.83
2022-12-13T06:08:37.642Z,21.40
2022-12-13T06:11:10.887Z,21.80
2022-12-13T06:13:42.821Z,20.00
2022-12-13T06:16:23.379Z,19.70
2022-12-13T06:19:03.868Z,19.40
2022-12-13T06:21:41.484Z,19.87
2022-12-13T06:24:15.916Z,19.40
2022-12-13T06:26:45.359Z,18.10
2022-12-13T06:29:24.245Z,18.43
2022-12-13T06:32:01.927Z,20.80
2022-12-13T06:34:36.141Z,17.20
2022-12-13T06:37:07.341Z,18.80
2022-12-13T06:39:35.167Z,18.93
2022-12-13T06:42:06.398Z,17.50
2022-12-13T06:44:35.359Z,17.83
2022-12-13T06:47:10.795Z,20.37
2022-12-13T06:49:43.698Z,21.30
2022-12-13T06:52:14.057Z,21.07
2022-12-13T06:54:43.154Z,18.33
2022-12-13T06:57:12.548Z,17.27
2022-12-13T06:59:40.326Z,13.27
2022-12-13T07:02:24.210Z,14.90
2022-12-13T07:04:52.499Z,13.37
2022-12-13T07:07:19.449Z,16.97
2022-12-13T07:09:46.529Z,16.90
2022-12-13T07:12:13.458Z,17.53
2022-12-13T07:14:41.441Z,18.43
2022-12-13T07:17:08.577Z,16.93
2022-12-13T07:19:36.084Z,14.60
2022-12-13T07:22:06.327Z,13.30
2022-12-13T07:24:35.807Z,13.97
2022-12-13T07:27:04.415Z,14.27
2022-12-13T07:29:31.407Z,20.47
2022-12-13T07:32:01.022Z,18.60
2022-12-13T07:34:30.826Z,18.17
2022-12-13T07:36:58.145Z,14.93
2022-12-13T07:39:28.778Z,16.20
2022-12-13T07:41:56.757Z,14.40
2022-12-13T07:44:25.036Z,15.27
2022-12-13T07:46:52.735Z,12.90
2022-12-13T07:49:20.256Z,17.93
2022-12-13T07:51:47.309Z,12.90
2022-12-13T07:54:14.269Z,16.23
2022-12-13T07:56:41.205Z,14.87
2022-12-13T07:59:10.615Z,15.97
2022-12-13T08:01:37.685Z,16.47
2022-12-13T08:04:05.134Z,14.40
2022-12-13T08:06:38.065Z,13.93
2022-12-13T08:09:06.154Z,12.87
2022-12-13T08:11:33.437Z,12.50
2022-12-13T08:14:00.848Z,13.93
2022-12-13T08:16:29.717Z,13.23
2022-12-13T08:19:02.755Z,15.80
2022-12-13T08:21:57.468Z,10.53
2022-12-13T08:24:29.036Z,16.70
2022-12-13T08:27:02.919Z,12.50
2022-12-13T08:29:33.477Z,13.47
2022-12-13T08:32:05.426Z,14.93
2022-12-13T08:34:32.324Z,14.53
2022-12-13T08:37:02.272Z,13.00
2022-12-13T08:39:37.144Z,11.43
2022-12-13T08:42:19.439Z,16.80
2022-12-13T08:44:52.862Z,14.47
2022-12-13T08:47:26.725Z,11.60
2022-12-13T08:50:02.961Z,13.50
2022-12-13T08:52:40.243Z,15.63
2022-12-13T08:55:15.850Z,12.83
2022-12-13T08:57:44.549Z,13.60
2022-12-13T09:00:19.651Z,16.23
2022-12-13T09:02:46.685Z,13.37
2022-12-13T09:05:34.269Z,10.17
2022-12-13T09:08:03.039Z,19.23
2022-12-13T09:10:38.254Z,15.80
2022-12-13T09:13:11.545Z,17.30
2022-12-13T09:15:45.987Z,13.90
2022-12-13T09:18:15.135Z,18.00
2022-12-13T09:20:51.198Z,16.90
2022-12-13T09:23:23.561Z,14.30
2022-12-13T09:26:05.912Z,16.30
2022-12-13T09:28:35.645Z,15.40
2022-12-13T09:31:17.656Z,12.80
2022-12-13T09:33:46.143Z,16.67
2022-12-13T09:36:17.843Z,15.27
2022-12-13T09:38:45.283Z,18.97
2022-12-13T09:41:29.293Z,14.67
2022-12-13T09:44:30.624Z,15.47
2022-12-13T09:47:13.649Z,20.33
2022-12-13T09:49:52.703Z,18.10
2022-12-13T09:52:24.882Z,17.70
2022-12-13T09:54:57.312Z,17.60
2022-12-13T09:57:34.133Z,15.37
2022-12-13T10:00:16.415Z,15.30
2022-12-13T10:02:51.366Z,13.97
2022-12-13T10:05:40.287Z,17.10
2022-12-13T10:08:16.220Z,15.47
2022-12-13T10:10:43.998Z,17.97
2022-12-13T10:13:17.854Z,16.10
2022-12-13T10:15:52.089Z,16.77
2022-12-13T10:18:37.885Z,17.07
2022-12-13T10:21:13.628Z,15.70
2022-12-13T10:24:07.298Z,14.33
2022-12-13T10:26:37.636Z,15.00
2022-12-13T10:29:07.396Z,17.47
2022-12-13T10:31:49.161Z,17.30
2022-12-13T10:34:36.472Z,17.33
2022-12-13T10:37:24.333Z,20.67
2022-12-13T10:39:51.234Z,17.20
2022-12-13T10:42:22.172Z,16.53
2022-12-13T10:45:23.517Z,14.50
2022-12-13T10:47:52.288Z,16.80
2022-12-13T10:50:30.732Z,15.40
2022-12-13T10:53:00.337Z,15.17
2022-12-13T10:55:40.912Z,16.63
2022-12-13T10:58:19.388Z,15.53
2022-12-13T11:00:49.484Z,16.33
2022-12-13T11:03:33.317Z,13.97
2022-12-13T11:06:28.160Z,15.27
2022-12-13T11:08:55.565Z,17.90
2022-12-13T11:11:30.544Z,14.97
2022-12-13T11:14:03.740Z,17.83
2022-12-13T11:16:42.009Z,16.60
2022-12-13T11:19:20.941Z,16.17
2022-12-13T11:21:50.971Z,19.03
2022-12-13T11:24:26.441Z,17.60
2022-12-13T11:27:20.948Z,17.13
2022-12-13T11:30:31.451Z,16.20
2022-12-13T11:33:48.426Z,15.87
2022-12-13T11:36:33.744Z,12.70
2022-12-13T11:39:22.570Z,16.73
2022-12-13T11:42:13.313Z,14.70
2022-12-13T11:44:48.284Z,16.13
2022-12-13T11:47:26.574Z,16.00
2022-12-13T11:49:54.573Z,11.43
2022-12-13T11:52:40.119Z,11.77
2022-12-13T11:55:32.298Z,11.73
2022-12-13T11:58:16.456Z,10.17
2022-12-13T12:00:56.457Z,12.10
2022-12-13T12:03:46.890Z,8.20
2022-12-13T12:07:32.313Z,12.67
2022-12-13T12:10:32.495Z,11.27
2022-12-13T12:13:33.564Z,10.17
2022-12-13T12:16:43.108Z,9.90
2022-12-13T12:19:16.065Z,10.57
2022-12-13T12:22:14.467Z,7.07
2022-12-13T12:25:22.957Z,10.90
2022-12-13T12:28:13.975Z,13.80
2022-12-13T12:31:05.824Z,13.57
2022-12-13T12:34:15.437Z,11.83
2022-12-13T12:37:03.580Z,10.70
2022-12-13T12:39:44.943Z,12.60
2022-12-13T12:43:14.387Z,11.70
2022-12-13T12:45:56.474Z,11.37
2022-12-13T12:49:03.061Z,12.40
2022-12-13T12:52:11.074Z,12.73
2022-12-13T12:54:43.872Z,13.97
2022-12-13T12:57:34.413Z,11.20
2022-12-13T13:00:23.383Z,14.37
2022-12-13T13:03:22.295Z,13.00
2022-12-13T13:06:03.146Z,12.53
2022-12-13T13:09:05.848Z,12.57
2022-12-13T13:11:43.206Z,12.60
2022-12-13T13:14:28.999Z,11.53
2022-12-13T13:16:58.053Z,13.70
2022-12-13T13:19:30.957Z,14.50
2022-12-13T13:22:02.040Z,11.67
2022-12-13T13:24:31.595Z,11.43
2022-12-13T13:27:29.641Z,12.60
2022-12-13T13:30:18.507Z,13.70
2022-12-13T13:32:46.672Z,12.87
2022-12-13T13:35:29.074Z,13.30
2022-12-13T13:37:57.769Z,14.40
2022-12-13T13:40:34.646Z,13.57
2022-12-13T13:43:08.779Z,11.90
2022-12-13T13:46:03.469Z,12.60
2022-12-13T13:48:58.114Z,11.17
2022-12-13T13:52:24.378Z,12.80
2022-12-13T13:55:17.773Z,14.17
2022-12-13T13:58:31.622Z,15.67
2022-12-13T14:01:26.605Z,13.90
2022-12-13T14:04:10.488Z,13.50
2022-12-13T14:07:00.940Z,12.53
2022-12-13T14:10:17.891Z,13.80
2022-12-13T14:13:12.769Z,12.23
2022-12-13T14:16:31.716Z,12.47
2022-12-13T14:19:56.311Z,14.00
2022-12-13T14:22:54.938Z,11.40
2022-12-13T14:25:23.583Z,11.07
2022-12-13T14:28:20.513Z,14.60
2022-12-13T14:30:47.708Z,16.57
2022-12-13T14:33:26.978Z,14.20
2022-12-13T14:35:58.730Z,15.10
2022-12-13T14:38:30.464Z,15.40
2022-12-13T14:41:01.748Z,14.00
2022-12-13T14:43:32.989Z,13.67
2022-12-13T14:46:06.881Z,13.63
2022-12-13T14:48:51.478Z,12.80
2022-12-13T14:51:36.447Z,15.10
2022-12-13T14:54:07.349Z,14.60
2022-12-13T14:56:34.903Z,17.10
2022-12-13T14:59:18.089Z,14.53
2022-12-13T15:01:56.588Z,13.80
2022-12-13T15:04:38.003Z,15.83
2022-12-13T15:07:15.203Z,15.03
2022-12-13T15:09:44.893Z,14.60
2022-12-13T15:12:25.268Z,15.23
2022-12-13T15:15:04.578Z,14.87
2022-12-13T15:17:36.759Z,14.40
2022-12-13T15:20:32.004Z,15.33
2022-12-13T15:23:06.522Z,13.63
2022-12-13T15:25:35.867Z,14.63
2022-12-13T15:28:05.377Z,13.30
2022-12-13T15:30:35.598Z,14.93
2022-12-13T15:33:28.865Z,14.20
2022-12-13T15:36:21.708Z,14.10
2022-12-13T15:39:01.778Z,15.73
2022-12-13T15:41:34.887Z,15.93
2022-12-13T15:44:07.295Z,15.20
2022-12-13T15:46:40.671Z,14.90
2022-12-13T15:49:22.895Z,15.07
2022-12-13T15:52:25.779Z,15.83
2022-12-13T15:55:02.757Z,16.70
2022-12-13T15:57:34.122Z,15.80
2022-12-13T16:00:19.671Z,20.80
2022-12-13T16:03:09.019Z,17.67
2022-12-13T16:05:53.798Z,18.70
2022-12-13T16:08:31.404Z,19.47
2022-12-13T16:10:59.806Z,25.80
2022-12-13T16:13:30.375Z,22.50
2022-12-13T16:16:09.532Z,21.03
2022-12-13T16:18:51.034Z,22.90
2022-12-13T16:21:17.978Z,19.90
2022-12-13T16:23:48.754Z,21.47
2022-12-13T16:26:27.096Z,24.40
2022-12-13T16:28:58.880Z,24.70
2022-12-13T16:31:31.602Z,24.70
2022-12-13T16:33:58.500Z,21.87
2022-12-13T16:36:25.419Z,22.23
2022-12-13T16:38:52.281Z,20.77
2022-12-13T16:41:19.333Z,22.00
2022-12-13T16:44:01.810Z,21.07
2022-12-13T16:47:16.134Z,20.60
2022-12-13T16:49:26.306Z,21.97
2022-12-13T16:51:54.293Z,22.93
2022-12-13T16:54:23.953Z,23.43
2022-12-13T16:56:52.394Z,22.17
2022-12-13T16:59:23.695Z,24.93
2022-12-13T17:01:51.802Z,26.07
2022-12-13T17:04:27.530Z,25.40
2022-12-13T17:06:56.332Z,22.00
2022-12-13T17:09:25.579Z,17.20
2022-12-13T17:11:53.138Z,19.47
2022-12-13T17:14:20.027Z,17.77
2022-12-13T17:16:47.697Z,17.90
2022-12-13T17:19:15.803Z,16.70
2022-12-13T17:21:42.966Z,17.17
2022-12-13T17:24:10.096Z,16.00
2022-12-13T17:26:37.115Z,18.50
2022-12-13T17:29:05.136Z,18.33
2022-12-13T17:31:36.192Z,16.53
2022-12-13T17:34:05.520Z,26.67
2022-12-13T17:36:32.666Z,17.17
2022-12-13T17:38:59.708Z,19.73
2022-12-13T17:41:26.662Z,19.20
2022-12-13T17:43:53.570Z,17.07
2022-12-13T17:46:20.626Z,14.53
2022-12-13T17:48:47.827Z,16.13
2022-12-13T17:51:15.745Z,14.93
2022-12-13T17:53:44.681Z,14.93
2022-12-13T17:56:17.849Z,25.30
2022-12-13T17:58:45.329Z,27.63
2022-12-13T18:01:25.131Z,22.03
2022-12-13T18:03:55.783Z,24.40
2022-12-13T18:06:24.722Z,22.13
2022-12-13T18:08:51.680Z,21.10
2022-12-13T18:11:36.163Z,19.83
2022-12-13T18:14:08.408Z,20.50
2022-12-13T18:16:38.808Z,21.03
2022-12-13T18:19:10.509Z,21.07
2022-12-13T18:21:37.850Z,20.20
2022-12-13T18:24:07.150Z,22.50
2022-12-13T18:26:35.262Z,22.90
2022-12-13T18:29:04.404Z,24.40
2022-12-13T18:31:32.056Z,23.43
2022-12-13T18:33:59.541Z,23.70
2022-12-13T18:36:26.866Z,25.20
2022-12-13T18:38:54.098Z,21.40
2022-12-13T18:41:24.731Z,25.00
2022-12-13T18:44:02.281Z,24.73
2022-12-13T18:46:32.716Z,23.43
2022-12-13T18:49:00.175Z,28.17
2022-12-13T18:51:28.804Z,27.17
2022-12-13T18:53:56.349Z,27.50
2022-12-13T18:56:24.663Z,29.20
2022-12-13T18:58:52.706Z,26.97
2022-12-13T19:01:20.954Z,24.20
2022-12-13T19:03:49.124Z,17.60
2022-12-13T19:06:20.320Z,19.20
2022-12-13T19:08:52.806Z,18.23
2022-12-13T19:11:20.813Z,18.00
2022-12-13T19:13:49.115Z,19.17
2022-12-13T19:16:20.508Z,17.40
2022-12-13T19:18:48.658Z,16.83
2022-12-13T19:21:19.598Z,18.80
2022-12-13T19:23:54.975Z,17.50
2022-12-13T19:26:23.770Z,19.67
2022-12-13T19:28:51.289Z,17.63
2022-12-13T19:31:18.312Z,16.10
2022-12-13T19:33:45.294Z,14.57
2022-12-13T19:36:12.699Z,16.47
2022-12-13T19:38:42.039Z,16.50
2022-12-13T19:41:18.526Z,23.93
2022-12-13T19:43:52.480Z,13.13
2022-12-13T19:46:20.331Z,12.50
2022-12-13T19:48:48.268Z,13.30
2022-12-13T19:51:16.010Z,12.80
2022-12-13T19:53:42.979Z,13.80
2022-12-13T19:56:13.068Z,12.23
2022-12-13T19:58:40.297Z,14.57
2022-12-13T20:01:08.564Z,11.90
2022-12-13T20:03:39.025Z,12.57
2022-12-13T20:06:11.851Z,11.47
2022-12-13T20:08:39.354Z,12.67
2022-12-13T20:11:13.381Z,10.43
2022-12-13T20:13:41.275Z,13.87
2022-12-13T20:16:08.851Z,10.50
2022-12-13T20:18:35.957Z,11.57
2022-12-13T20:21:12.988Z,11.40
2022-12-13T20:23:41.708Z,11.37
2022-12-13T20:26:21.446Z,11.47
2022-12-13T20:28:50.282Z,12.60
2022-12-13T20:31:24.638Z,12.40
2022-12-13T20:34:02.646Z,14.70
2022-12-13T20:36:31.622Z,16.00
2022-12-13T20:39:01.867Z,15.07
2022-12-13T20:41:32.268Z,13.33
2022-12-13T20:44:01.932Z,14.03
2022-12-13T20:46:32.636Z,17.17
2022-12-13T20:49:03.526Z,17.83
2022-12-13T20:51:32.589Z,22.13
2022-12-13T20:54:00.343Z,23.63
2022-12-13T20:56:34.478Z,22.53
2022-12-13T20:59:03.912Z,24.03
2022-12-13T21:01:35.512Z,17.93
2022-12-13T21:04:05.877Z,16.90
2022-12-13T21:06:36.675Z,17.30
2022-12-13T21:09:06.002Z,17.80
2022-12-13T21:11:33.500Z,15.97
2022-12-13T21:14:14.995Z,15.87
2022-12-13T21:16:52.470Z,17.23
2022-12-13T21:19:24.110Z,17.47
2022-12-13T21:21:55.082Z,17.60
2022-12-13T21:24:26.259Z,16.80
2022-12-13T21:26:56.710Z,17.30
2022-12-13T21:29:24.703Z,16.20
2022-12-13T21:31:53.479Z,16.23
2022-12-13T21:34:22.884Z,19.93
2022-12-13T21:36:53.795Z,18.93
2022-12-13T21:39:30.472Z,16.83
2022-12-13T21:41:58.355Z,16.57
2022-12-13T21:44:25.492Z,16.27
2022-12-13T21:49:41.139Z,17.27
2022-12-13T21:52:08.251Z,17.43
2022-12-13T21:54:35.216Z,19.00
2022-12-13T21:57:20.931Z,19.70
2022-12-13T21:59:47.851Z,18.90
2022-12-13T22:02:20.414Z,15.70
2022-12-13T22:04:52.289Z,15.67
2022-12-13T22:07:26.277Z,20.30
2022-12-13T22:09:55.263Z,19.50
2022-12-13T22:12:42.026Z,20.80
2022-12-13T22:15:15.440Z,18.77
2022-12-13T22:17:43.544Z,20.07
2022-12-13T22:20:13.997Z,16.90
2022-12-13T22:22:44.336Z,17.33
2022-12-13T22:25:11.831Z,16.43
2022-12-13T22:27:38.896Z,14.50
2022-12-13T22:30:07.078Z,17.13
2022-12-13T22:32:34.077Z,14.97
2022-12-13T22:35:01.136Z,13.70
2022-12-13T22:37:28.122Z,16.80
2022-12-13T22:39:55.246Z,15.00
2022-12-13T22:42:22.817Z,18.03
2022-12-13T22:44:49.777Z,15.93
2022-12-13T22:47:16.960Z,15.23
2022-12-13T22:49:43.940Z,14.63
2022-12-13T22:52:10.946Z,18.17
2022-12-13T22:54:38.040Z,17.30
2022-12-13T22:57:05.206Z,15.80
2022-12-13T22:59:33.100Z,17.50
2022-12-13T23:02:02.997Z,19.40
2022-12-13T23:04:32.037Z,15.83
2022-12-13T23:06:59.461Z,17.17
2022-12-13T23:09:26.582Z,16.47
2022-12-13T23:12:12.146Z,17.13
2022-12-13T23:14:39.121Z,18.37
2022-12-13T23:17:07.886Z,16.70
2022-12-13T23:19:49.677Z,13.30
2022-12-13T23:22:19.931Z,13.93
2022-12-13T23:24:46.896Z,14.20
2022-12-13T23:27:13.907Z,15.00
2022-12-13T23:29:40.906Z,15.90
2022-12-13T23:32:07.793Z,14.87
2022-12-13T23:34:34.921Z,15.57
2022-12-13T23:37:01.870Z,14.20
2022-12-13T23:39:28.818Z,15.70
2022-12-13T23:41:55.797Z,16.27
2022-12-13T23:44:23.002Z,18.17
2022-12-13T23:46:49.963Z,18.10
2022-12-13T23:49:16.988Z,17.33
2022-12-13T23:51:43.997Z,14.90
2022-12-13T23:54:18.031Z,18.10
2022-12-13T23:56:45.262Z,19.40
2022-12-13T23:59:12.351Z,17.20
